Time;durP1;ratioP1;P1;durP2;ratioP2;P2;SDS_P1;SDS_P2;PMS_P1;PMS_P2;Temp;Humidity;BMP_temperature;BMP_pressure;BME280_temperature;BME280_humidity;BME280_pressure;Samples;Min_cycle;Max_cycle;Signal;HPM_P1;HPM_P2
2022/05/31 00:01:25;;;;;;;1999.90;999.90;;;;;;;8.62;100.00;94139.00;5054782;28;20173;-57
2022/05/31 00:03:50;;;;;;;1999.90;999.90;;;;;;;8.58;100.00;94122.75;5054633;28;20231;-55
2022/05/31 00:06:16;;;;;;;1999.90;999.90;;;;;;;8.53;100.00;94109.63;5054659;28;20206;-57
2022/05/31 00:08:41;;;;;;;1999.90;999.90;;;;;;;8.52;100.00;94110.81;5054622;28;20275;-57
2022/05/31 00:11:07;;;;;;;1999.90;999.90;;;;;;;8.50;100.00;94105.06;5054806;28;20594;-57
2022/05/31 00:13:33;;;;;;;1999.90;999.90;;;;;;;8.46;100.00;94096.19;5054927;28;20192;-58
2022/05/31 00:15:58;;;;;;;1999.90;999.90;;;;;;;8.44;100.00;94095.84;5054519;28;20189;-61
2022/05/31 00:18:24;;;;;;;1999.90;999.90;;;;;;;8.42;100.00;94092.03;5054529;28;20202;-67
2022/05/31 00:20:49;;;;;;;1999.90;999.90;;;;;;;8.40;100.00;94078.84;5054727;28;20196;-58
2022/05/31 00:23:14;;;;;;;1999.90;999.90;;;;;;;8.43;100.00;94072.56;5054782;28;20185;-59
2022/05/31 00:25:40;;;;;;;1999.90;999.90;;;;;;;8.40;100.00;94072.63;5054415;28;20270;-58
2022/05/31 00:28:05;;;;;;;1999.90;999.90;;;;;;;8.32;100.00;94061.16;5054522;28;20198;-58
2022/05/31 00:30:31;;;;;;;1999.90;999.90;;;;;;;8.30;100.00;94058.06;5054434;28;20252;-58
2022/05/31 00:32:57;;;;;;;1999.90;999.90;;;;;;;8.28;100.00;94037.94;5038352;28;20221;-59
2022/05/31 00:35:32;;;;;;;1999.90;999.90;;;;;;;8.26;100.00;94038.34;5054394;28;20198;-61
2022/05/31 00:37:59;;;;;;;1999.90;999.90;;;;;;;8.28;100.00;94030.53;5054809;28;20248;-68
2022/05/31 00:40:27;;;;;;;1999.90;999.90;;;;;;;8.28;100.00;94016.94;5054016;28;20291;-67
2022/05/31 00:43:00;;;;;;;1999.90;999.90;;;;;;;8.27;100.00;94007.22;5054212;28;20185;-67
2022/05/31 00:45:37;;;;;;;1999.90;999.90;;;;;;;8.26;100.00;94008.44;5054437;28;20304;-66
2022/05/31 00:48:05;;;;;;;1999.90;999.90;;;;;;;8.26;100.00;93997.56;5054324;28;20246;-65
2022/05/31 00:50:38;;;;;;;1999.90;999.90;;;;;;;8.24;100.00;93997.22;5053470;28;20200;-66
2022/05/31 00:53:10;;;;;;;1999.90;999.90;;;;;;;8.19;100.00;93994.22;5054616;28;20239;-59
2022/05/31 00:55:45;;;;;;;1999.90;999.90;;;;;;;8.16;100.00;93982.19;5053924;28;20197;-58
2022/05/31 00:58:25;;;;;;;1999.90;999.90;;;;;;;8.15;100.00;93966.31;5054568;28;20272;-59
2022/05/31 01:00:51;;;;;;;1999.90;999.90;;;;;;;8.14;100.00;93960.13;5054007;28;20269;-59
2022/05/31 01:03:18;;;;;;;1999.90;999.90;;;;;;;8.11;100.00;93958.25;5053903;28;20223;-58
2022/05/31 01:05:45;;;;;;;1999.90;999.90;;;;;;;8.14;100.00;93951.97;5053795;28;20181;-59
2022/05/31 01:08:10;;;;;;;1999.90;999.90;;;;;;;8.16;100.00;93944.13;5053756;28;20252;-59
2022/05/31 01:10:36;;;;;;;1999.90;999.90;;;;;;;8.23;100.00;93937.81;5053606;28;20196;-59
2022/05/31 01:13:03;;;;;;;1999.90;999.90;;;;;;;8.21;100.00;93938.25;5053712;28;20259;-59
2022/05/31 01:15:28;;;;;;;1999.90;999.90;;;;;;;8.24;100.00;93931.97;5053680;28;20512;-68
2022/05/31 01:17:53;;;;;;;1999.90;999.90;;;;;;;8.16;100.00;93927.09;5053551;28;20243;-67
2022/05/31 01:20:21;;;;;;;1999.90;999.90;;;;;;;8.16;100.00;93922.38;5053594;28;20190;-69
2022/05/31 01:22:55;;;;;;;1999.90;999.90;;;;;;;8.13;100.00;93917.81;5053471;28;20269;-66
2022/05/31 01:25:48;;;;;;;1999.90;999.90;;;;;;;8.11;100.00;93909.31;5053673;28;20225;-68
2022/05/31 01:28:24;;;;;;;1999.90;999.90;;;;;;;8.17;100.00;93907.63;5053407;28;20194;-67
2022/05/31 01:31:11;;;;;;;1999.90;999.90;;;;;;;8.18;100.00;93903.72;5053744;28;20192;-59
2022/05/31 01:33:43;;;;;;;1999.90;999.90;;;;;;;8.22;100.00;93892.78;5053891;28;20192;-66
2022/05/31 01:36:16;;;;;;;1999.90;999.90;;;;;;;8.24;100.00;93887.69;5053971;28;20283;-66
2022/05/31 01:38:56;;;;;;;1999.90;999.90;;;;;;;8.21;100.00;93880.34;5053754;28;20184;-68
2022/05/31 01:42:02;;;;;;;1999.90;999.90;;;;;;;8.25;100.00;93876.38;5053196;28;20303;-66
2022/05/31 01:44:32;;;;;;;1999.90;999.90;;;;;;;8.26;100.00;93872.47;5026206;28;20193;-64
2022/05/31 01:47:00;;;;;;;1999.90;999.90;;;;;;;8.28;100.00;93870.09;5052793;28;20208;-66
2022/05/31 01:49:30;;;;;;;1999.90;999.90;;;;;;;8.25;100.00;93873.66;5053383;28;20186;-58
2022/05/31 01:51:56;;;;;;;1999.90;999.90;;;;;;;8.24;100.00;93880.31;5052965;28;20669;-60
2022/05/31 01:54:22;;;;;;;1999.90;999.90;;;;;;;8.17;100.00;93883.16;5052883;28;20224;-61
2022/05/31 01:56:52;;;;;;;1999.90;999.90;;;;;;;8.12;100.00;93885.63;5053024;28;20204;-60
2022/05/31 01:59:18;;;;;;;1999.90;999.90;;;;;;;8.11;100.00;93881.34;5052922;28;20707;-60
2022/05/31 02:01:44;;;;;;;1999.90;999.90;;;;;;;8.09;100.00;93873.63;5052099;28;20227;-60
2022/05/31 02:04:13;;;;;;;1999.90;999.90;;;;;;;8.06;100.00;93882.66;5052772;28;20667;-60
2022/05/31 02:06:40;;;;;;;1999.90;999.90;;;;;;;8.04;100.00;93887.72;5052764;28;20236;-58
2022/05/31 02:09:10;;;;;;;1999.90;999.90;;;;;;;8.03;100.00;93883.47;5053311;28;20212;-66
2022/05/31 02:11:36;;;;;;;1999.90;999.90;;;;;;;8.08;100.00;93872.09;5053697;28;20178;-66
2022/05/31 02:14:03;;;;;;;1999.90;999.90;;;;;;;8.11;100.00;93865.81;5052917;28;20214;-65
2022/05/31 02:16:29;;;;;;;1999.90;999.90;;;;;;;8.16;100.00;93865.28;5052728;28;20201;-64
2022/05/31 02:21:38;;;;;;;1999.90;999.90;;;;;;;8.13;100.00;93868.88;5054067;28;20188;-65
2022/05/31 02:24:07;;;;;;;1999.90;999.90;;;;;;;8.05;100.00;93866.75;5053078;28;20192;-65
2022/05/31 02:26:33;;;;;;;1999.90;999.90;;;;;;;7.98;100.00;93866.91;5052649;28;20204;-58
2022/05/31 02:28:59;;;;;;;1999.90;999.90;;;;;;;7.96;100.00;93858.41;5053097;28;20186;-57
2022/05/31 02:31:25;;;;;;;1999.90;999.90;;;;;;;7.87;100.00;93864.44;5052778;28;20208;-59
2022/05/31 02:33:51;;;;;;;1999.90;999.90;;;;;;;7.82;100.00;93869.59;5053475;28;20243;-58
2022/05/31 02:36:16;;;;;;;1999.90;999.90;;;;;;;7.81;100.00;93863.41;5052048;28;20185;-58
2022/05/31 02:38:41;;;;;;;1999.90;999.90;;;;;;;7.85;100.00;93861.38;5052398;28;20521;-59
2022/05/31 02:41:07;;;;;;;1999.90;999.90;;;;;;;7.85;100.00;93858.66;5052535;28;20192;-58
2022/05/31 02:43:32;;;;;;;1999.90;999.90;;;;;;;7.85;100.00;93855.94;5052218;28;20193;-67
2022/05/31 02:46:03;;;;;;;1999.90;999.90;;;;;;;7.78;100.00;93847.97;5052937;28;20189;-59
2022/05/31 02:48:28;;;;;;;1999.90;999.90;;;;;;;7.79;100.00;93844.03;5052217;28;20270;-54
2022/05/31 02:50:54;;;;;;;1999.90;999.90;;;;;;;7.79;100.00;93848.72;5052664;28;20212;-57
2022/05/31 02:53:19;;;;;;;1999.90;999.90;;;;;;;7.77;100.00;93845.66;5052356;28;20646;-57
2022/05/31 02:55:44;;;;;;;1999.90;999.90;;;;;;;7.76;100.00;93834.00;5051960;28;20542;-57
2022/05/31 02:58:09;;;;;;;1999.90;999.90;;;;;;;7.78;100.00;93834.38;5052642;28;20223;-57
2022/05/31 03:00:35;;;;;;;1999.90;999.90;;;;;;;7.77;100.00;93824.69;5052334;28;20244;-57
2022/05/31 03:03:00;;;;;;;1999.90;999.90;;;;;;;7.80;100.00;93823.09;5051930;28;20543;-59
2022/05/31 03:05:25;;;;;;;1999.90;999.90;;;;;;;7.85;100.00;93815.19;5052524;28;20185;-58
2022/05/31 03:07:51;;;;;;;1999.90;999.90;;;;;;;7.91;100.00;93818.94;5051788;28;20290;-56
2022/05/31 03:10:16;;;;;;;1999.90;999.90;;;;;;;7.98;100.00;93813.31;5052981;28;20197;-56
2022/05/31 03:12:43;;;;;;;1999.90;999.90;;;;;;;8.03;100.00;93814.75;5053635;28;20220;-57
2022/05/31 03:15:12;;;;;;;1999.90;999.90;;;;;;;8.10;100.00;93804.50;5056138;28;20281;-59
2022/05/31 03:17:41;;;;;;;1999.90;999.90;;;;;;;8.15;100.00;93812.13;5055401;28;20216;-58
2022/05/31 03:20:27;;;;;;;1999.90;999.90;;;;;;;8.08;100.00;93809.56;5055632;28;20325;-67
2022/05/31 03:23:02;;;;;;;1999.90;999.90;;;;;;;8.07;100.00;93824.38;5055054;28;20193;-52
2022/05/31 03:25:28;;;;;;;1999.90;999.90;;;;;;;7.95;100.00;93818.84;5055702;28;20197;-62
2022/05/31 03:28:02;;;;;;;1999.90;999.90;;;;;;;7.99;100.00;93820.28;5055295;28;20197;-60
2022/05/31 03:30:29;;;;;;;1999.90;999.90;;;;;;;8.07;100.00;93816.22;5055041;28;20177;-60
2022/05/31 03:32:56;;;;;;;1999.90;999.90;;;;;;;8.09;100.00;93813.81;5055723;28;20554;-60
2022/05/31 03:35:21;;;;;;;1999.90;999.90;;;;;;;8.14;100.00;93816.03;5055230;28;20196;-61
2022/05/31 03:37:47;;;;;;;1999.90;999.90;;;;;;;8.20;100.00;93819.00;5054711;28;20189;-61
2022/05/31 03:40:56;;;;;;;1999.90;999.90;;;;;;;8.25;100.00;93822.00;5055553;28;20186;-56
2022/05/31 03:43:02;;;;;;;1999.90;999.90;;;;;;;8.29;100.00;93817.25;5056174;28;20608;-55
2022/05/31 03:45:38;;;;;;;1999.90;999.90;;;;;;;8.21;100.00;93829.50;5055177;28;20182;-48
2022/05/31 03:48:04;;;;;;;1999.90;999.90;;;;;;;8.21;100.00;93832.22;5055268;28;20208;-53
2022/05/31 03:50:30;;;;;;;1999.90;999.90;;;;;;;8.25;100.00;93823.94;5055243;28;20185;-58
2022/05/31 03:52:55;;;;;;;1999.90;999.90;;;;;;;8.30;100.00;93818.75;5055070;28;20209;-57
2022/05/31 03:55:21;;;;;;;1999.90;999.90;;;;;;;8.30;100.00;93818.75;5054985;28;20193;-58
2022/05/31 03:57:48;;;;;;;1999.90;999.90;;;;;;;8.31;100.00;93820.28;5055210;28;20185;-58
2022/05/31 04:00:15;;;;;;;1999.90;999.90;;;;;;;8.35;100.00;93810.09;5055333;28;20209;-61
2022/05/31 04:02:40;;;;;;;1999.90;999.90;;;;;;;8.38;100.00;93819.34;5054651;28;20182;-60
2022/05/31 04:05:06;;;;;;;1999.90;999.90;;;;;;;8.43;100.00;93816.88;5055994;28;20186;-61
2022/05/31 04:07:31;;;;;;;1999.90;999.90;;;;;;;8.53;100.00;93815.81;5054736;28;20197;-60
2022/05/31 04:09:57;;;;;;;1999.90;999.90;;;;;;;8.55;100.00;93824.34;5054808;28;20190;-61
2022/05/31 04:12:22;;;;;;;1999.90;999.90;;;;;;;8.58;100.00;93839.03;5054769;28;20182;-61
2022/05/31 04:14:47;;;;;;;1999.90;999.90;;;;;;;8.71;100.00;93842.59;5054669;28;20546;-61
2022/05/31 04:17:13;;;;;;;1999.90;999.90;;;;;;;8.85;100.00;93837.50;5054675;28;20568;-55
2022/05/31 04:19:39;;;;;;;1999.90;999.90;;;;;;;8.97;100.00;93841.50;5054927;28;20273;-67
2022/05/31 04:22:04;;;;;;;1999.90;999.90;;;;;;;9.21;100.00;93848.19;5054134;28;20278;-67
2022/05/31 04:24:30;;;;;;;1999.90;999.90;;;;;;;9.66;100.00;93844.13;5054065;28;20244;-66
2022/05/31 04:26:55;;;;;;;1999.90;999.90;;;;;;;9.87;100.00;93856.34;5055228;28;20565;-67
2022/05/31 04:29:21;;;;;;;1999.90;999.90;;;;;;;10.04;100.00;93885.81;5054301;28;20224;-67
2022/05/31 04:31:48;;;;;;;1999.90;999.90;;;;;;;10.22;100.00;93907.13;5054470;28;20616;-67
2022/05/31 04:34:14;;;;;;;1999.90;999.90;;;;;;;10.18;100.00;93943.88;5054611;28;20188;-61
2022/05/31 04:36:40;;;;;;;1999.90;999.90;;;;;;;10.12;100.00;93981.09;5054600;28;20537;-60
2022/05/31 04:39:05;;;;;;;1999.90;999.90;;;;;;;10.24;100.00;94000.22;5054367;28;20223;-59
2022/05/31 04:41:31;;;;;;;1999.90;999.90;;;;;;;10.19;100.00;94025.28;5054021;28;20208;-60
2022/05/31 04:43:58;;;;;;;1999.90;999.90;;;;;;;10.07;100.00;94054.06;5054192;28;20184;-59
2022/05/31 04:46:27;;;;;;;1999.90;999.90;;;;;;;10.05;100.00;94066.56;5053892;28;20217;-59
2022/05/31 04:48:53;;;;;;;1999.90;999.90;;;;;;;10.14;100.00;94085.84;5054033;28;20189;-59
2022/05/31 04:51:19;;;;;;;1999.90;999.90;;;;;;;10.22;100.00;94103.53;5053724;28;20192;-58
2022/05/31 04:53:44;;;;;;;1999.90;999.90;;;;;;;10.30;100.00;94098.66;5054090;28;20232;-67
2022/05/31 04:56:13;;;;;;;1999.90;999.90;;;;;;;10.41;100.00;94115.50;5054060;28;20223;-58
2022/05/31 04:58:38;;;;;;;1999.90;999.90;;;;;;;10.66;100.00;94123.72;5055118;28;20195;-59
2022/05/31 05:01:07;;;;;;;1999.90;999.90;;;;;;;10.85;100.00;94134.44;5053892;28;20194;-59
2022/05/31 05:03:36;;;;;;;1999.90;999.90;;;;;;;11.07;100.00;94162.66;5053863;28;20188;-59
2022/05/31 05:06:05;;;;;;;1999.90;999.90;;;;;;;11.44;100.00;94180.28;5053697;28;20243;-60
2022/05/31 05:08:31;;;;;;;1999.90;999.90;;;;;;;11.64;100.00;94208.16;5053839;28;20515;-60
2022/05/31 05:10:59;;;;;;;1999.90;999.90;;;;;;;11.68;100.00;94230.69;5053938;28;20192;-59
2022/05/31 05:13:24;;;;;;;1999.90;999.90;;;;;;;12.10;100.00;94248.50;5053862;28;20205;-59
2022/05/31 05:15:51;;;;;;;1999.90;999.90;;;;;;;12.46;100.00;94284.47;5053602;28;20210;-59
2022/05/31 05:18:17;;;;;;;1999.90;999.90;;;;;;;12.49;100.00;94332.84;5053445;28;20202;-59
2022/05/31 05:20:42;;;;;;;1999.90;999.90;;;;;;;12.84;100.00;94348.88;5053709;28;20174;-60
2022/05/31 05:23:07;;;;;;;1999.90;999.90;;;;;;;13.13;100.00;94387.09;5053467;28;20224;-61
2022/05/31 05:25:33;;;;;;;1999.90;999.90;;;;;;;13.56;100.00;94408.28;5053169;28;20235;-61
2022/05/31 05:27:59;;;;;;;1999.90;999.90;;;;;;;14.54;100.00;94432.09;5053785;28;20245;-60
2022/05/31 05:30:39;;;;;;;1999.90;999.90;;;;;;;15.24;100.00;94495.25;5053531;28;20650;-58
2022/05/31 05:33:05;;;;;;;1999.90;999.90;;;;;;;15.67;100.00;94574.88;5053097;28;20189;-57
2022/05/31 05:35:30;;;;;;;1999.90;999.90;;;;;;;16.17;100.00;94638.47;5052031;28;20719;-56
2022/05/31 05:37:55;;;;;;;1999.90;999.90;;;;;;;16.88;100.00;94696.09;5053259;28;20242;-54
2022/05/31 05:40:21;;;;;;;1999.90;999.90;;;;;;;16.88;100.00;94762.31;5053710;28;20196;-57
2022/05/31 05:42:46;;;;;;;1999.90;999.90;;;;;;;17.18;100.00;94800.00;5053196;28;20235;-56
2022/05/31 05:45:11;;;;;;;1999.90;999.90;;;;;;;17.25;100.00;94828.09;5053137;28;20218;-57
2022/05/31 05:47:37;;;;;;;1999.90;999.90;;;;;;;17.20;100.00;94827.94;5053214;28;20266;-67
2022/05/31 05:50:03;;;;;;;1999.90;999.90;;;;;;;17.71;100.00;94835.16;5053282;28;20185;-60
2022/05/31 05:52:29;;;;;;;1999.90;999.90;;;;;;;19.04;100.00;94858.47;5053477;28;20186;-61
2022/05/31 05:54:54;;;;;;;1999.90;999.90;;;;;;;18.93;100.00;94883.16;5053026;28;20192;-58
2022/05/31 05:57:20;;;;;;;1999.90;999.90;;;;;;;19.10;100.00;94896.13;5052675;28;20194;-59
2022/05/31 05:59:45;;;;;;;1999.90;999.90;;;;;;;19.03;100.00;94906.78;5053417;28;20220;-60
2022/05/31 06:02:18;;;;;;;1999.90;999.90;;;;;;;19.86;100.00;94848.34;5052888;28;20208;-59
2022/05/31 06:04:49;;;;;;;1999.90;999.90;;;;;;;19.07;100.00;94874.94;5053437;28;20190;-59
2022/05/31 06:07:27;;;;;;;1999.90;999.90;;;;;;;19.10;100.00;94838.00;5053250;28;20225;-58
2022/05/31 06:09:58;;;;;;;1999.90;999.90;;;;;;;19.98;98.81;94999.78;5052650;28;20182;-58
2022/05/31 06:12:27;;;;;;;1999.90;999.90;;;;;;;18.56;100.00;95119.66;5052533;28;20201;-58
2022/05/31 06:15:00;;;;;;;1999.90;999.90;;;;;;;18.79;100.00;95117.03;5052898;28;20193;-58
2022/05/31 06:17:33;;;;;;;1999.90;999.90;;;;;;;19.55;100.00;95130.56;5052791;28;20206;-58
2022/05/31 06:20:03;;;;;;;1999.90;999.90;;;;;;;20.21;97.30;95129.34;5052828;28;20181;-58
2022/05/31 06:22:30;;;;;;;1999.90;999.90;;;;;;;18.76;98.68;95134.56;5053175;28;20218;-58
2022/05/31 06:24:57;;;;;;;1999.90;999.90;;;;;;;17.79;100.00;95156.06;5052670;28;20202;-58
2022/05/31 06:27:23;;;;;;;1999.90;999.90;;;;;;;18.72;100.00;95150.56;5052486;28;20209;-62
2022/05/31 06:29:49;;;;;;;1999.90;999.90;;;;;;;18.83;98.70;95134.25;5052325;28;20185;-62
2022/05/31 06:32:16;;;;;;;1999.90;999.90;;;;;;;18.44;100.00;95128.88;5052566;28;20221;-61
2022/05/31 06:34:41;;;;;;;1999.90;999.90;;;;;;;17.61;100.00;95139.41;5052558;28;20225;-61
2022/05/31 06:37:09;;;;;;;1999.90;999.90;;;;;;;18.19;100.00;95134.66;5052399;28;20209;-62
2022/05/31 06:39:36;;;;;;;1999.90;999.90;;;;;;;18.55;100.00;95123.66;5052327;28;20210;-62
2022/05/31 06:42:03;;;;;;;1999.90;999.90;;;;;;;19.54;97.42;95112.44;5052922;28;20196;-60
2022/05/31 06:44:34;;;;;;;1999.90;999.90;;;;;;;19.16;92.71;95106.69;5052089;28;20192;-56
2022/05/31 06:47:00;;;;;;;1999.90;999.90;;;;;;;19.83;90.35;95109.84;5053184;28;20197;-60
2022/05/31 06:49:26;;;;;;;1999.90;999.90;;;;;;;19.85;87.43;95096.25;5056288;28;20185;-60
2022/05/31 06:57:19;;;;;;;1999.90;999.90;;;;;;;21.32;75.37;95066.41;5057402;28;20200;-58
2022/05/31 06:59:45;;;;;;;1999.90;999.90;;;;;;;21.25;69.00;95055.69;5055866;28;20173;-59
2022/05/31 07:02:10;;;;;;;1999.90;999.90;;;;;;;21.89;69.97;95041.75;5056423;28;20181;-59
2022/05/31 07:04:36;;;;;;;1999.90;999.90;;;;;;;21.69;66.15;95028.56;5056260;28;20181;-57
2022/05/31 07:07:02;;;;;;;1999.90;999.90;;;;;;;22.15;66.98;95032.22;5056049;28;20288;-57
2022/05/31 07:09:27;;;;;;;1999.90;999.90;;;;;;;22.63;59.17;95020.66;5055488;28;20189;-59
2022/05/31 07:11:56;;;;;;;1999.90;999.90;;;;;;;21.76;61.59;95011.50;5055599;28;20276;-57
2022/05/31 07:14:26;;;;;;;1999.90;999.90;;;;;;;22.33;63.25;95004.13;5055646;28;20216;-58
2022/05/31 07:16:51;;;;;;;1999.90;999.90;;;;;;;23.33;55.90;94997.53;5055287;28;20241;-58
2022/05/31 07:19:17;;;;;;;1999.90;999.90;;;;;;;23.72;55.27;94995.00;5055629;28;20189;-58
2022/05/31 07:21:43;;;;;;;1999.90;999.90;;;;;;;23.77;53.02;94995.03;5055331;28;20178;-59
2022/05/31 07:24:09;;;;;;;1999.90;999.90;;;;;;;22.46;56.73;95001.75;5055443;28;20182;-62
2022/05/31 07:26:34;;;;;;;1999.90;999.90;;;;;;;23.88;54.34;94988.75;5055612;28;20206;-61
2022/05/31 07:29:00;;;;;;;1999.90;999.90;;;;;;;23.38;54.62;94987.69;5055777;28;20327;-60
2022/05/31 07:31:26;;;;;;;1999.90;999.90;;;;;;;23.90;51.38;94977.84;5055458;28;20245;-60
2022/05/31 07:33:51;;;;;;;1999.90;999.90;;;;;;;24.49;48.31;94981.41;5055555;28;20190;-60
2022/05/31 07:36:19;;;;;;;1999.90;999.90;;;;;;;24.27;47.98;94975.75;5055874;28;20186;-59
2022/05/31 07:38:45;;;;;;;1999.90;999.90;;;;;;;24.79;46.21;94979.72;5055199;28;20279;-60
2022/05/31 07:41:10;;;;;;;1999.90;999.90;;;;;;;25.96;44.44;94972.84;5055417;28;20174;-59
2022/05/31 07:43:35;;;;;;;1999.90;999.90;;;;;;;24.78;43.84;94983.78;5055050;28;20190;-58
2022/05/31 07:46:06;;;;;;;1999.90;999.90;;;;;;;24.31;46.68;94976.28;5055245;28;20255;-59
2022/05/31 07:48:34;;;;;;;1999.90;999.90;;;;;;;25.55;45.83;94969.84;5055029;28;20266;-60
2022/05/31 07:50:59;;;;;;;1999.90;999.90;;;;;;;26.50;41.29;94969.03;5055155;28;20232;-58
2022/05/31 07:53:24;;;;;;;1999.90;999.90;;;;;;;26.62;39.37;94975.38;5055020;28;20190;-59
2022/05/31 07:55:58;;;;;;;1999.90;999.90;;;;;;;25.26;40.20;94970.34;5054907;28;20185;-58
2022/05/31 07:58:33;;;;;;;1999.90;999.90;;;;;;;25.45;39.70;94971.38;5054224;28;20197;-55
2022/05/31 08:01:04;;;;;;;1999.90;999.90;;;;;;;25.08;43.33;94971.63;5054712;28;20202;-60
2022/05/31 08:03:31;;;;;;;1999.90;999.90;;;;;;;25.05;43.84;94971.88;5055314;28;20186;-59
2022/05/31 08:05:57;;;;;;;1999.90;999.90;;;;;;;24.95;43.61;94973.41;5054451;28;20212;-58
2022/05/31 08:08:22;;;;;;;1999.90;999.90;;;;;;;26.07;42.31;94965.16;5054821;28;20244;-60
2022/05/31 08:10:48;;;;;;;1999.90;999.90;;;;;;;26.36;41.67;94964.50;5054665;28;20189;-60
2022/05/31 08:13:13;;;;;;;1999.90;999.90;;;;;;;25.55;43.33;94972.63;5054769;28;20178;-59
2022/05/31 08:15:39;;;;;;;1999.90;999.90;;;;;;;26.65;41.65;94963.88;5054920;28;20182;-62
2022/05/31 08:18:04;;;;;;;1999.90;999.90;;;;;;;27.44;40.03;94960.78;5054665;28;20254;-57
2022/05/31 08:20:29;;;;;;;1999.90;999.90;;;;;;;26.65;41.42;94955.47;5055005;28;20239;-59
2022/05/31 08:22:55;;;;;;;1999.90;999.90;;;;;;;24.62;45.05;94962.19;5054334;28;20189;-61
2022/05/31 08:25:21;;;;;;;1999.90;999.90;;;;;;;25.75;43.51;94966.00;5054539;28;20201;-58
2022/05/31 08:27:46;;;;;;;1999.90;999.90;;;;;;;25.60;44.43;94960.66;5054580;28;20228;-58
2022/05/31 08:30:12;;;;;;;1999.90;999.90;;;;;;;26.25;43.69;94947.03;5054417;28;20186;-59
2022/05/31 08:32:37;;;;;;;1999.90;999.90;;;;;;;26.92;43.16;94948.94;5054438;28;20280;-57
2022/05/31 08:35:04;;;;;;;1999.90;999.90;;;;;;;27.01;41.31;94934.59;5054268;28;20178;-51
2022/05/31 08:37:30;;;;;;;1999.90;999.90;;;;;;;27.06;41.34;94941.44;5054224;28;20253;-60
2022/05/31 08:39:56;;;;;;;1999.90;999.90;;;;;;;27.64;39.83;94940.66;5054640;28;20212;-59
2022/05/31 08:42:27;;;;;;;1999.90;999.90;;;;;;;26.71;42.09;94939.41;5054362;28;20185;-60
2022/05/31 08:45:03;;;;;;;1999.90;999.90;;;;;;;26.82;41.94;94938.56;5054219;28;20228;-59
2022/05/31 08:47:46;;;;;;;1999.90;999.90;;;;;;;27.49;40.07;94931.88;5054557;28;20228;-62
2022/05/31 08:53:17;;;;;;;1999.90;999.90;;;;;;;26.76;41.37;94921.78;5055161;28;20197;-58
2022/05/31 08:59:14;;;;;;;1999.90;999.90;;;;;;;28.88;34.41;94936.59;5055335;28;20178;-49
2022/05/31 09:01:52;;;;;;;1999.90;999.90;;;;;;;28.08;35.29;94931.78;5054333;28;20224;-51
2022/05/31 09:04:32;;;;;;;1999.90;999.90;;;;;;;27.83;37.44;94926.72;5054387;28;20186;-55
2022/05/31 09:07:04;;;;;;;1999.90;999.90;;;;;;;27.35;37.37;94930.22;5053887;28;20205;-53
2022/05/31 09:09:38;;;;;;;1999.90;999.90;;;;;;;28.03;35.88;94929.81;5053735;28;20178;-60
2022/05/31 09:12:14;;;;;;;1999.90;999.90;;;;;;;27.52;36.59;94928.03;5054245;28;20275;-62
2022/05/31 09:14:55;;;;;;;1999.90;999.90;;;;;;;28.03;36.15;94921.38;5054740;28;20178;-63
2022/05/31 09:17:38;;;;;;;1999.90;999.90;;;;;;;27.39;37.15;94925.09;5054226;28;20201;-62
2022/05/31 09:20:17;;;;;;;1999.90;999.90;;;;;;;27.50;35.88;94919.38;5053534;28;20186;-62
2022/05/31 09:22:45;;;;;;;1999.90;999.90;;;;;;;27.36;37.42;94909.31;5053662;28;20193;-61
2022/05/31 09:25:11;;;;;;;1999.90;999.90;;;;;;;26.82;37.05;94921.72;5053767;28;20272;-61
2022/05/31 09:27:45;;;;;;;1999.90;999.90;;;;;;;26.40;39.54;94911.03;5053830;28;20206;-58
2022/05/31 09:30:19;;;;;;;1999.90;999.90;;;;;;;27.21;38.06;94908.16;5053945;28;20189;-60
2022/05/31 09:33:10;;;;;;;1999.90;999.90;;;;;;;27.21;38.11;94917.34;5053676;28;20273;-61
2022/05/31 09:36:11;;;;;;;1999.90;999.90;;;;;;;27.34;37.93;94911.88;5053899;28;20193;-64
2022/05/31 09:38:37;;;;;;;1999.90;999.90;;;;;;;26.49;40.52;94910.72;5053766;28;20196;-61
2022/05/31 09:41:11;;;;;;;1999.90;999.90;;;;;;;26.52;39.45;94909.69;5053281;28;20182;-62
2022/05/31 09:43:40;;;;;;;1999.90;999.90;;;;;;;26.80;39.61;94908.22;5054527;28;20228;-60
2022/05/31 09:46:12;;;;;;;1999.90;999.90;;;;;;;27.08;40.30;94905.97;5053391;28;20197;-61
2022/05/31 09:48:48;;;;;;;1999.90;999.90;;;;;;;28.11;36.55;94907.47;5053778;28;20178;-59
2022/05/31 09:51:38;;;;;;;1999.90;999.90;;;;;;;27.64;36.57;94912.59;5053034;28;20193;-58
2022/05/31 09:57:06;;;;;;;1999.90;999.90;;;;;;;26.88;40.11;94900.78;5054420;28;20184;-58
2022/05/31 09:59:44;;;;;;;1999.90;999.90;;;;;;;26.70;39.38;94892.25;5053092;28;20177;-55
2022/05/31 10:02:33;;;;;;;1999.90;999.90;;;;;;;27.28;40.10;94891.53;5053025;28;20177;-57
2022/05/31 10:05:13;;;;;;;1999.90;999.90;;;;;;;27.23;37.82;94889.53;5053458;28;20185;-58
2022/05/31 10:07:39;;;;;;;1999.90;999.90;;;;;;;27.00;38.81;94891.00;5053471;28;20216;-61
2022/05/31 10:10:16;;;;;;;1999.90;999.90;;;;;;;27.17;37.50;94886.00;5053032;28;20185;-62
2022/05/31 10:13:08;;;;;;;1999.90;999.90;;;;;;;29.22;34.71;94895.41;5053245;28;20204;-62
2022/05/31 10:15:48;;;;;;;1999.90;999.90;;;;;;;29.37;33.54;94898.47;5053465;28;20186;-62
2022/05/31 10:18:43;;;;;;;1999.90;999.90;;;;;;;29.55;32.46;94897.63;5052873;28;20240;-60
2022/05/31 10:21:11;;;;;;;1999.90;999.90;;;;;;;29.79;31.80;94894.66;5069559;28;20194;-61
2022/05/31 10:23:45;;;;;;;1999.90;999.90;;;;;;;29.45;33.58;94893.72;5052275;28;20185;-63
2022/05/31 10:26:32;;;;;;;1999.90;999.90;;;;;;;29.64;33.37;94894.44;5052933;28;20192;-63
2022/05/31 10:29:03;;;;;;;1999.90;999.90;;;;;;;29.79;33.64;94877.75;5069483;28;20193;-61
2022/05/31 10:31:35;;;;;;;1999.90;999.90;;;;;;;28.79;34.38;94880.75;5052638;28;20193;-60
2022/05/31 10:34:03;;;;;;;1999.90;999.90;;;;;;;27.46;37.09;94868.41;5052824;28;20220;-61
2022/05/31 10:36:32;;;;;;;1999.90;999.90;;;;;;;27.07;38.46;94859.59;5052986;28;20186;-61
2022/05/31 10:39:08;;;;;;;1999.90;999.90;;;;;;;27.61;38.36;94863.13;5052826;28;20205;-60
2022/05/31 10:41:35;;;;;;;1999.90;999.90;;;;;;;27.81;36.46;94851.41;5052784;28;20239;-61
2022/05/31 10:44:28;;;;;;;1999.90;999.90;;;;;;;27.47;37.76;94853.09;5052462;28;20213;-60
2022/05/31 10:47:00;;;;;;;1999.90;999.90;;;;;;;26.66;38.75;94846.94;5052654;28;20293;-60
2022/05/31 10:49:26;;;;;;;1999.90;999.90;;;;;;;28.85;35.74;94842.06;5052531;28;20177;-61
2022/05/31 10:52:20;;;;;;;1999.90;999.90;;;;;;;30.63;34.28;94833.19;5052691;28;20208;-63
2022/05/31 10:55:09;;;;;;;1999.90;999.90;;;;;;;32.70;29.98;94838.53;5052929;28;20190;-63
2022/05/31 10:57:41;;;;;;;1999.90;999.90;;;;;;;32.91;31.12;94842.00;5052476;28;20186;-62
2022/05/31 11:00:20;;;;;;;1999.90;999.90;;;;;;;31.24;30.62;94838.06;5052302;28;20184;-60
2022/05/31 11:03:27;;;;;;;1999.90;999.90;;;;;;;27.76;36.38;94831.81;5052037;28;20178;-61
2022/05/31 11:06:02;;;;;;;1999.90;999.90;;;;;;;28.71;36.61;94837.69;5052020;28;20280;-61
2022/05/31 11:11:55;;;;;;;1999.90;999.90;;;;;;;28.93;33.93;94831.69;5053124;28;20242;-62
2022/05/31 11:14:48;;;;;;;1999.90;999.90;;;;;;;26.27;38.35;94827.59;5052720;28;20194;-62
2022/05/31 11:17:32;;;;;;;1999.90;999.90;;;;;;;25.74;39.51;94825.31;5051866;28;20292;-61
2022/05/31 11:20:16;;;;;;;1999.90;999.90;;;;;;;25.24;40.94;94833.09;5052052;28;20190;-59
2022/05/31 11:22:47;;;;;;;1999.90;999.90;;;;;;;27.70;36.35;94823.47;5051982;28;20185;-57
2022/05/31 11:25:24;;;;;;;1999.90;999.90;;;;;;;27.86;36.11;94825.34;5051675;28;20197;-57